createdAt,value
2022-08-17T00:02:25.618Z,21.3
2022-08-17T00:08:11.388Z,21.4
2022-08-17T00:13:51.416Z,21.3
2022-08-17T00:19:36.304Z,21.2
2022-08-17T00:25:16.503Z,21.1
2022-08-17T00:30:56.692Z,21.1
2022-08-17T00:36:36.931Z,21
2022-08-17T00:42:17.057Z,21
2022-08-17T00:47:57.196Z,20.9
2022-08-17T00:53:37.656Z,20.8
2022-08-17T00:59:18.074Z,20.7
2022-08-17T01:04:58.053Z,20.6
2022-08-17T01:10:57.095Z,20.3
2022-08-17T01:16:42.555Z,20.2
2022-08-17T01:22:22.766Z,20
2022-08-17T01:28:02.944Z,19.9
2022-08-17T01:33:43.130Z,19.8
2022-08-17T01:39:23.345Z,19.7
2022-08-17T01:45:03.715Z,19.6
2022-08-17T01:50:44.046Z,19.6
2022-08-17T01:56:26.454Z,19.8
2022-08-17T02:02:06.558Z,19.9
2022-08-17T02:07:48.055Z,20
2022-08-17T02:13:42.633Z,20.2
2022-08-17T02:19:22.729Z,20.2
2022-08-17T02:25:02.856Z,20.1
2022-08-17T02:31:00.379Z,20
2022-08-17T02:36:43.671Z,20
2022-08-17T02:42:23.987Z,20.1
2022-08-17T02:48:04.770Z,20.2
2022-08-17T02:53:49.094Z,20.3
2022-08-17T02:59:29.397Z,20.3
2022-08-17T03:05:09.485Z,20.2
2022-08-17T03:10:49.698Z,20.3
2022-08-17T03:16:29.945Z,20.3
2022-08-17T03:22:34.803Z,20.4
2022-08-17T03:28:21.096Z,20.6
2022-08-17T03:34:02.308Z,20.5
2022-08-17T03:39:42.712Z,20.5
2022-08-17T03:45:23.830Z,20.5
2022-08-17T03:51:04.112Z,20.5
2022-08-17T03:56:44.414Z,20.6
2022-08-17T04:02:24.857Z,20.6
2022-08-17T04:08:05.405Z,20.7
2022-08-17T04:13:47.031Z,20.8
2022-08-17T04:19:27.318Z,20.9
2022-08-17T04:25:07.619Z,21
2022-08-17T04:30:47.836Z,21.3
2022-08-17T04:36:28.283Z,21.5
2022-08-17T04:42:08.617Z,21.5
2022-08-17T04:47:48.807Z,21.6
2022-08-17T04:53:29.135Z,21.7
2022-08-17T04:59:09.371Z,21.8
2022-08-17T05:04:49.666Z,21.8
2022-08-17T05:10:30.002Z,21.8
2022-08-17T05:16:10.313Z,21.8
2022-08-17T05:21:50.459Z,21.9
2022-08-17T05:27:35.338Z,21.9
2022-08-17T05:33:16.477Z,21.9
2022-08-17T05:38:56.857Z,21.9
2022-08-17T05:44:37.454Z,21.9
2022-08-17T05:50:18.153Z,21.9
2022-08-17T05:56:11.588Z,21.9
2022-08-17T06:02:14.052Z,21.8
2022-08-17T06:07:54.482Z,21.8
2022-08-17T06:13:34.658Z,21.9
2022-08-17T06:19:15.072Z,22
2022-08-17T06:24:55.565Z,22.1
2022-08-17T06:30:36.707Z,22.4
2022-08-17T06:36:42.043Z,22.9
2022-08-17T06:42:54.349Z,23.2
2022-08-17T08:10:34.922Z,24.3
2022-08-17T08:16:15.488Z,23.9
2022-08-17T08:21:55.944Z,24.1
2022-08-17T08:27:36.781Z,24.6
2022-08-17T08:33:17.179Z,24.1
2022-08-17T08:38:57.173Z,23.8
2022-08-17T08:44:59.399Z,23.8
2022-08-17T08:50:46.220Z,23.7
2022-08-17T08:56:26.950Z,23.5
2022-08-17T09:02:06.939Z,23.3
2022-08-17T09:07:46.947Z,22.4
2022-08-17T09:13:27.228Z,21.7
2022-08-17T09:19:07.885Z,22
2022-08-17T09:24:48.346Z,21.8
2022-08-17T09:30:31.342Z,21.5
2022-08-17T09:36:11.456Z,21.3
2022-08-17T09:41:51.695Z,21
2022-08-17T09:47:32.177Z,21
2022-08-17T09:53:12.927Z,21
2022-08-17T09:58:53.157Z,20.8
2022-08-17T10:04:33.875Z,20.5
2022-08-17T10:10:17.688Z,20.1
2022-08-17T10:16:04.318Z,19.9
2022-08-17T10:21:47.107Z,19.9
2022-08-17T10:27:28.468Z,20.2
2022-08-17T10:33:08.703Z,20.7
2022-08-17T10:38:49.087Z,21.4
2022-08-17T10:44:35.444Z,21.7
2022-08-17T10:50:22.003Z,22.1
2022-08-17T10:56:03.140Z,22
2022-08-17T11:01:46.187Z,22.3
2022-08-17T11:07:29.947Z,23.2
2022-08-17T11:13:10.638Z,24
2022-08-17T11:18:50.709Z,24
2022-08-17T11:24:31.455Z,24.2
2022-08-17T11:30:11.985Z,23.9
2022-08-17T11:35:59.790Z,23.6
2022-08-17T11:41:40.240Z,23.4
2022-08-17T11:47:34.205Z,22.9
2022-08-17T11:53:14.857Z,22.5
2022-08-17T11:58:55.011Z,22.1
2022-08-17T12:04:35.308Z,22.1
2022-08-17T12:10:16.888Z,21.7
2022-08-17T12:15:56.772Z,21.5
2022-08-17T12:21:37.758Z,21.8
2022-08-17T12:27:18.005Z,22
2022-08-17T12:33:49.939Z,22.6
2022-08-17T12:39:30.186Z,22.4
2022-08-17T12:45:16.241Z,22.2
2022-08-17T12:51:17.423Z,22.2
2022-08-17T12:57:21.389Z,22.7
2022-08-17T13:03:01.872Z,22.5
2022-08-17T13:08:43.316Z,22.8
2022-08-17T13:14:23.455Z,22.6
2022-08-17T13:20:04.756Z,23.7
2022-08-17T13:25:44.997Z,23.6
2022-08-17T13:31:28.469Z,24.4
2022-08-17T13:37:32.335Z,24.9
2022-08-17T13:43:16.346Z,25.7
2022-08-17T13:48:56.964Z,26.2
2022-08-17T13:54:40.169Z,27.2
2022-08-17T14:00:36.841Z,26.5
2022-08-17T14:12:00.739Z,29.6
2022-08-17T14:17:43.696Z,30.5
2022-08-17T14:23:28.339Z,31.9
2022-08-17T14:29:15.333Z,32.1
2022-08-17T14:35:04.076Z,33.3
2022-08-17T14:40:48.055Z,33.3
2022-08-17T14:46:28.221Z,31.7
2022-08-17T14:52:09.033Z,33
2022-08-17T14:57:49.099Z,32.7
2022-08-17T15:03:32.584Z,31.6
2022-08-17T15:09:15.237Z,32.2
2022-08-17T15:14:58.175Z,31.5
2022-08-17T15:25:43.790Z,29
2022-08-17T15:32:38.782Z,27.4
2022-08-17T15:43:24.907Z,26.1
2022-08-17T15:49:08.413Z,25.6
2022-08-17T15:54:48.373Z,25.1
2022-08-17T16:00:28.578Z,25
2022-08-17T16:06:09.186Z,24.7
2022-08-17T16:11:56.018Z,25
2022-08-17T16:17:39.456Z,24.9
2022-08-17T16:23:24.181Z,24.7
2022-08-17T16:29:04.566Z,24.4
2022-08-17T16:34:44.635Z,24.4
2022-08-17T16:40:25.773Z,24.2
2022-08-17T16:46:06.066Z,24.3
2022-08-17T16:51:46.304Z,24.3
2022-08-17T16:57:26.605Z,24.4
2022-08-17T17:03:06.839Z,24.3
2022-08-17T17:09:01.153Z,24.1
2022-08-17T17:14:41.444Z,24
2022-08-17T17:20:21.678Z,24
2022-08-17T17:26:01.799Z,23.8
2022-08-17T17:31:42.154Z,23.6
2022-08-17T17:37:24.525Z,23.5
2022-08-17T17:43:27.569Z,23.4
2022-08-17T17:49:21.860Z,23.4
2022-08-17T17:55:02.296Z,23.5
2022-08-17T18:00:42.711Z,23.6
2022-08-17T18:06:23.167Z,23.7
2022-08-17T18:12:10.634Z,23.6
2022-08-17T18:17:50.845Z,23.3
2022-08-17T18:23:33.643Z,23.1
2022-08-17T18:29:14.057Z,22.8
2022-08-17T18:34:56.577Z,22.5
2022-08-17T18:40:36.828Z,22.3
2022-08-17T18:46:16.954Z,22.1
2022-08-17T18:52:14.995Z,22
2022-08-17T18:57:58.588Z,21.7
2022-08-17T19:03:43.179Z,21.5
2022-08-17T19:09:28.976Z,21.3
2022-08-17T19:30:55.165Z,20.9
2022-08-17T19:36:35.677Z,21
2022-08-17T19:47:30.685Z,20.7
2022-08-17T19:54:04.709Z,20.8
2022-08-17T19:59:53.157Z,20.6
2022-08-17T20:05:44.383Z,20.4
2022-08-17T20:17:02.725Z,20
2022-08-17T20:22:49.738Z,19.8
2022-08-17T20:33:37.409Z,19.3
2022-08-17T20:44:22.577Z,18.9
2022-08-17T20:50:03.073Z,18.8
2022-08-17T20:55:51.296Z,18.8
2022-08-17T21:01:33.750Z,18.9
2022-08-17T21:07:15.230Z,18.8
2022-08-17T21:12:55.714Z,18.6
2022-08-17T21:18:38.849Z,18.5
2022-08-17T21:24:19.439Z,18.5
2022-08-17T21:30:00.035Z,18.4
2022-08-17T21:35:41.042Z,18.3
2022-08-17T21:41:24.382Z,18.3
2022-08-17T21:47:04.779Z,18.4
2022-08-17T21:52:45.050Z,18.4
2022-08-17T21:58:28.448Z,18.5
2022-08-17T22:04:09.138Z,18.6
2022-08-17T22:09:49.608Z,18.4
2022-08-17T22:15:29.942Z,18.5
2022-08-17T22:21:10.261Z,18.7
2022-08-17T22:26:50.534Z,18.6
2022-08-17T22:32:30.816Z,18.6
2022-08-17T22:38:11.510Z,18.6
2022-08-17T22:43:52.043Z,18.5
2022-08-17T22:49:33.175Z,18.3
2022-08-17T22:55:13.376Z,18.2
2022-08-17T23:00:54.239Z,18.2
2022-08-17T23:06:34.606Z,18.2
2022-08-17T23:12:15.219Z,18.5
2022-08-17T23:17:55.485Z,18.6
2022-08-17T23:23:35.702Z,18.4
2022-08-17T23:29:16.027Z,18.3
2022-08-17T23:34:56.466Z,18.2
2022-08-17T23:40:36.907Z,18
2022-08-17T23:46:20.262Z,18
2022-08-17T23:52:00.494Z,17.8
2022-08-17T23:57:40.835Z,17.8
